Time;durP1;ratioP1;P1;durP2;ratioP2;P2;SDS_P1;SDS_P2;PMS_P1;PMS_P2;Temp;Humidity;BMP_temperature;BMP_pressure;BME280_temperature;BME280_humidity;BME280_pressure;Samples;Min_cycle;Max_cycle;Signal;HPM_P1;HPM_P2
2021/08/19 00:00:10;;;;;;;;;;;;;;;23.34;54.76;99934.88;452903;115;922757;-73
2021/08/19 00:01:15;;;;;;;;;;;;;;;23.33;54.73;99924.87;454204;115;923031;-73
2021/08/19 00:02:18;;;;;;;;;;;;;;;23.35;54.71;99932.92;454234;115;922685;-73
2021/08/19 00:03:23;;;;;;;;;;;;;;;23.35;54.71;99935.70;453829;115;922569;-71
2021/08/19 00:04:27;;;;;;;;;;;;;;;23.35;54.65;99932.92;454935;115;923054;-72
2021/08/19 00:05:30;;;;;;;;;;;;;;;23.33;54.69;99933.22;455095;115;922640;-73
2021/08/19 00:06:34;;;;;;;;;;;;;;;23.32;54.76;99931.61;461275;114;921735;-73
2021/08/19 00:07:37;;;;;;;;;;;;;;;23.32;54.85;99923.26;461025;113;922604;-72
2021/08/19 00:08:41;;;;;;;;;;;;;;;23.30;54.93;99928.30;461380;113;922660;-71
2021/08/19 00:09:44;;;;;;;;;;;;;;;23.31;54.96;99920.78;462218;113;923172;-73
2021/08/19 00:10:48;;;;;;;;;;;;;;;23.29;55.02;99921.09;461428;113;921508;-73
2021/08/19 00:11:52;;;;;;;;;;;;;;;23.29;55.06;99921.09;449814;116;921451;-73
2021/08/19 00:12:55;;;;;;;;;;;;;;;23.30;55.08;99928.30;461235;113;921558;-73
2021/08/19 00:13:58;;;;;;;;;;;;;;;23.31;55.18;99918.00;459319;113;923033;-73
2021/08/19 00:15:02;;;;;;;;;;;;;;;23.31;55.26;99918.83;460718;113;922728;-70
2021/08/19 00:16:07;;;;;;;;;;;;;;;23.31;55.32;99921.61;460581;113;923034;-71
2021/08/19 00:17:10;;;;;;;;;;;;;;;23.30;55.40;99914.40;460997;112;921459;-72
2021/08/19 00:18:13;;;;;;;;;;;;;;;23.29;55.51;99913.57;460212;113;921539;-72
2021/08/19 00:19:17;;;;;;;;;;;;;;;23.26;55.70;99913.39;460300;113;922563;-71
2021/08/19 00:20:20;;;;;;;;;;;;;;;23.24;55.81;99908.13;460734;113;921411;-72
2021/08/19 00:21:24;;;;;;;;;;;;;;;23.20;55.83;99904.34;460386;114;921396;-72
2021/08/19 00:22:29;;;;;;;;;;;;;;;23.18;55.91;99905.78;460396;113;923023;-72
2021/08/19 00:23:35;;;;;;;;;;;;;;;23.15;56.00;99910.03;461130;113;921548;-72
2021/08/19 00:24:38;;;;;;;;;;;;;;;23.12;56.08;99910.64;459597;114;921525;-71
2021/08/19 00:25:41;;;;;;;;;;;;;;;23.08;56.17;99909.64;459790;113;922430;-74
2021/08/19 00:26:44;;;;;;;;;;;;;;;23.05;56.30;99901.91;461351;113;923189;-73
2021/08/19 00:27:48;;;;;;;;;;;;;;;23.02;56.34;99904.50;460540;113;922596;-71
2021/08/19 00:28:51;;;;;;;;;;;;;;;22.99;56.38;99900.38;454142;115;921638;-71
2021/08/19 00:29:54;;;;;;;;;;;;;;;22.97;56.40;99905.44;455474;114;921572;-72
2021/08/19 00:30:58;;;;;;;;;;;;;;;22.96;56.37;99902.97;456034;115;921448;-72
2021/08/19 00:32:05;;;;;;;;;;;;;;;22.92;56.33;99899.18;455607;115;921373;-72
2021/08/19 00:33:08;;;;;;;;;;;;;;;22.86;56.28;99896.52;455104;115;921482;-72
2021/08/19 00:34:11;;;;;;;;;;;;;;;22.83;56.27;99899.08;454888;115;921471;-73
2021/08/19 00:35:15;;;;;;;;;;;;;;;22.79;56.35;99898.06;456023;114;921417;-73
2021/08/19 00:36:18;;;;;;;;;;;;;;;22.75;56.39;99899.84;453503;115;921466;-72
2021/08/19 00:37:21;;;;;;;;;;;;;;;22.72;56.47;99901.27;449314;116;921452;-72
2021/08/19 00:38:24;;;;;;;;;;;;;;;22.69;56.55;99904.65;455477;114;921411;-72
2021/08/19 00:39:27;;;;;;;;;;;;;;;22.67;56.67;99900.52;455591;114;921517;-72
2021/08/19 00:40:31;;;;;;;;;;;;;;;22.65;56.78;99911.97;460214;114;921359;-72
2021/08/19 00:41:35;;;;;;;;;;;;;;;22.63;56.91;99911.45;460819;114;921397;-72
2021/08/19 00:42:38;;;;;;;;;;;;;;;22.60;57.05;99917.64;460829;113;921402;-71
2021/08/19 00:43:42;;;;;;;;;;;;;;;22.58;57.22;99919.89;460845;113;922772;-70
2021/08/19 00:44:45;;;;;;;;;;;;;;;22.55;57.41;99917.72;459839;114;924204;-73
2021/08/19 00:45:49;;;;;;;;;;;;;;;22.56;57.54;99913.81;460131;113;922620;-73
2021/08/19 00:46:52;;;;;;;;;;;;;;;22.54;57.66;99921.66;459331;113;923165;-73
2021/08/19 00:47:55;;;;;;;;;;;;;;;22.53;57.78;99916.41;452637;115;922732;-71
2021/08/19 00:49:00;;;;;;;;;;;;;;;22.53;57.92;99917.23;453009;114;922682;-73
2021/08/19 00:50:05;;;;;;;;;;;;;;;22.55;58.04;99917.72;455399;113;922478;-71
2021/08/19 00:51:08;;;;;;;;;;;;;;;22.58;58.12;99922.67;454009;115;922648;-71
2021/08/19 00:52:11;;;;;;;;;;;;;;;22.60;58.12;99922.38;454777;115;922749;-72
2021/08/19 00:53:16;;;;;;;;;;;;;;;22.63;58.03;99916.18;456955;108;924214;-71
2021/08/19 00:54:24;;;;;;;;;;;;;;;22.65;57.95;99920.31;449629;117;922528;-71
2021/08/19 00:55:28;;;;;;;;;;;;;;;22.67;57.87;99911.64;451554;116;922565;-71
2021/08/19 00:56:31;;;;;;;;;;;;;;;22.69;57.81;99915.77;451392;115;922648;-72
2021/08/19 00:57:34;;;;;;;;;;;;;;;22.71;57.70;99915.47;456333;115;922674;-72
2021/08/19 00:58:38;;;;;;;;;;;;;;;22.72;57.69;99908.78;456884;112;922816;-72
2021/08/19 00:59:42;;;;;;;;;;;;;;;22.74;57.63;99924.02;457069;115;922653;-72
2021/08/19 01:00:46;;;;;;;;;;;;;;;22.75;57.61;99916.51;457316;114;921536;-72
2021/08/19 01:01:53;;;;;;;;;;;;;;;22.76;57.61;99912.60;457290;114;922680;-72
2021/08/19 01:02:58;;;;;;;;;;;;;;;22.77;57.57;99911.47;451152;115;923155;-73
2021/08/19 01:04:05;;;;;;;;;;;;;;;22.77;57.48;99912.27;444005;118;921503;-71
2021/08/19 01:05:10;;;;;;;;;;;;;;;22.79;57.44;99911.97;451324;116;923139;-71
2021/08/19 01:06:14;;;;;;;;;;;;;;;22.79;57.38;99914.74;450759;116;923144;-73
2021/08/19 01:07:17;;;;;;;;;;;;;;;22.78;57.37;99919.48;443365;118;922714;-72
2021/08/19 01:08:20;;;;;;;;;;;;;;;22.79;57.36;99915.57;451044;115;922658;-72
2021/08/19 01:09:23;;;;;;;;;;;;;;;22.78;57.37;99907.53;443713;118;922513;-72
2021/08/19 01:10:27;;;;;;;;;;;;;;;22.75;57.36;99905.39;451109;116;922727;-71
2021/08/19 01:11:31;;;;;;;;;;;;;;;22.72;57.48;99915.16;443190;120;922692;-70
2021/08/19 01:12:35;;;;;;;;;;;;;;;22.68;57.60;99911.34;450742;116;922580;-70
2021/08/19 01:13:38;;;;;;;;;;;;;;;22.65;57.69;99911.15;449957;115;922858;-71
2021/08/19 01:14:45;;;;;;;;;;;;;;;22.60;57.78;99914.86;455569;115;922656;-69
2021/08/19 01:15:48;;;;;;;;;;;;;;;22.55;57.90;99926.05;457570;115;922692;-70
2021/08/19 01:16:51;;;;;;;;;;;;;;;22.52;57.89;99918.36;457795;114;922744;-70
2021/08/19 01:17:56;;;;;;;;;;;;;;;22.48;57.80;99924.84;447909;116;922720;-70
2021/08/19 01:18:59;;;;;;;;;;;;;;;22.42;57.83;99924.13;447234;116;922703;-71
2021/08/19 01:20:03;;;;;;;;;;;;;;;22.38;57.93;99917.55;451339;116;923719;-71
2021/08/19 01:21:07;;;;;;;;;;;;;;;22.32;58.04;99930.72;441457;118;923214;-71
2021/08/19 01:22:10;;;;;;;;;;;;;;;22.28;58.19;99926.06;443749;118;922687;-71
2021/08/19 01:23:13;;;;;;;;;;;;;;;22.22;58.34;99933.67;451328;116;922685;-71
2021/08/19 01:24:17;;;;;;;;;;;;;;;22.17;58.33;99927.39;451109;116;922731;-72
2021/08/19 01:25:20;;;;;;;;;;;;;;;22.12;58.33;99922.77;456871;114;921518;-72
2021/08/19 01:26:23;;;;;;;;;;;;;;;22.09;58.37;99928.12;457642;114;921452;-72
2021/08/19 01:27:28;;;;;;;;;;;;;;;22.08;58.38;99932.84;457264;115;921388;-71
2021/08/19 01:28:32;;;;;;;;;;;;;;;22.10;58.33;99935.33;457242;115;921465;-72
2021/08/19 01:29:35;;;;;;;;;;;;;;;22.09;58.27;99925.34;458069;113;921686;-72
2021/08/19 01:30:39;;;;;;;;;;;;;;;22.08;58.18;99929.25;458253;114;921552;-72
2021/08/19 01:31:44;;;;;;;;;;;;;;;22.07;58.21;99925.64;457948;115;921496;-72
2021/08/19 01:32:47;;;;;;;;;;;;;;;22.08;58.28;99940.35;450369;115;921548;-72
2021/08/19 01:33:52;;;;;;;;;;;;;;;22.07;58.17;99933.97;443680;118;922562;-72
2021/08/19 01:34:55;;;;;;;;;;;;;;;22.06;58.25;99926.77;441980;119;922700;-72
2021/08/19 01:35:59;;;;;;;;;;;;;;;22.07;58.37;99924.81;444019;118;922737;-70
2021/08/19 01:37:02;;;;;;;;;;;;;;;22.08;58.36;99929.25;451677;116;923973;-72
2021/08/19 01:38:05;;;;;;;;;;;;;;;22.10;58.43;99932.55;451428;114;922624;-72
2021/08/19 01:39:08;;;;;;;;;;;;;;;22.11;58.42;99934.20;457014;115;922668;-72
2021/08/19 01:40:12;;;;;;;;;;;;;;;22.14;58.36;99928.02;451417;116;922739;-72
2021/08/19 01:41:15;;;;;;;;;;;;;;;22.17;58.35;99935.72;451020;115;922911;-71
2021/08/19 01:42:18;;;;;;;;;;;;;;;22.18;58.33;99938.20;443040;117;922715;-72
2021/08/19 01:43:22;;;;;;;;;;;;;;;22.20;58.27;99932.35;443012;117;922665;-71
2021/08/19 01:44:25;;;;;;;;;;;;;;;22.23;58.21;99937.27;451414;116;922686;-70
2021/08/19 01:45:28;;;;;;;;;;;;;;;22.25;58.17;99930.30;451058;115;922617;-70
2021/08/19 01:46:32;;;;;;;;;;;;;;;22.27;58.13;99930.00;456490;114;922692;-71
2021/08/19 01:47:35;;;;;;;;;;;;;;;22.29;58.08;99934.09;457702;114;922723;-72
2021/08/19 01:48:42;;;;;;;;;;;;;;;22.28;58.04;99931.62;457491;114;923145;-70
2021/08/19 01:49:46;;;;;;;;;;;;;;;22.27;58.04;99932.77;457595;114;922442;-70
2021/08/19 01:50:49;;;;;;;;;;;;;;;22.23;58.12;99928.94;451335;116;922633;-70
2021/08/19 01:51:52;;;;;;;;;;;;;;;22.21;58.23;99925.67;451672;116;922626;-71
2021/08/19 01:52:55;;;;;;;;;;;;;;;22.17;58.29;99919.89;456735;117;923511;-72
2021/08/19 01:53:59;;;;;;;;;;;;;;;22.17;58.38;99925.44;456550;115;923080;-71
2021/08/19 01:55:02;;;;;;;;;;;;;;;22.17;58.45;99925.44;461599;113;922650;-72
2021/08/19 01:56:06;;;;;;;;;;;;;;;22.17;58.48;99921.84;460681;113;924271;-73
2021/08/19 01:57:09;;;;;;;;;;;;;;;22.18;58.44;99929.88;459855;113;922608;-73
2021/08/19 01:58:13;;;;;;;;;;;;;;;22.20;58.43;99922.06;460844;111;922708;-73
2021/08/19 01:59:17;;;;;;;;;;;;;;;22.22;58.43;99921.77;461295;113;922649;-73
2021/08/19 02:00:20;;;;;;;;;;;;;;;22.24;58.39;99922.27;451621;116;922668;-73
2021/08/19 02:01:24;;;;;;;;;;;;;;;22.27;58.33;99930.00;461206;113;922673;-72
2021/08/19 02:02:29;;;;;;;;;;;;;;;22.29;58.27;99927.72;461191;113;922652;-72
2021/08/19 02:03:33;;;;;;;;;;;;;;;22.31;58.25;99925.47;461294;113;921560;-72
2021/08/19 02:04:36;;;;;;;;;;;;;;;22.31;58.23;99925.47;461177;113;922690;-72
2021/08/19 02:05:39;;;;;;;;;;;;;;;22.31;58.29;99925.47;460951;113;922642;-72
2021/08/19 02:06:42;;;;;;;;;;;;;;;22.29;58.32;99922.16;461124;113;922739;-72
2021/08/19 02:07:45;;;;;;;;;;;;;;;22.29;58.25;99911.05;460886;112;922651;-72
2021/08/19 02:08:48;;;;;;;;;;;;;;;22.31;58.15;99919.91;460898;113;922674;-72
2021/08/19 02:09:52;;;;;;;;;;;;;;;22.32;58.06;99919.61;460738;114;922716;-71
2021/08/19 02:10:55;;;;;;;;;;;;;;;22.33;57.98;99924.01;460483;110;923312;-71
2021/08/19 02:11:58;;;;;;;;;;;;;;;22.33;57.79;99925.96;459804;113;922760;-71
2021/08/19 02:13:02;;;;;;;;;;;;;;;22.33;57.46;99912.90;460963;113;922678;-71
2021/08/19 02:14:06;;;;;;;;;;;;;;;22.32;57.38;99916.00;460969;114;924901;-72
2021/08/19 02:15:10;;;;;;;;;;;;;;;22.33;57.35;99925.96;460445;111;923091;-71
2021/08/19 02:16:13;;;;;;;;;;;;;;;22.33;57.38;99917.63;460844;114;923143;-71
2021/08/19 02:17:17;;;;;;;;;;;;;;;22.34;57.27;99922.88;451557;116;923186;-72
2021/08/19 02:18:21;;;;;;;;;;;;;;;22.36;57.24;99923.41;460933;113;922631;-72
2021/08/19 02:19:24;;;;;;;;;;;;;;;22.36;57.33;99922.58;461097;110;922725;-72
2021/08/19 02:20:27;;;;;;;;;;;;;;;22.36;57.43;99922.58;461371;113;922714;-72
2021/08/19 02:21:30;;;;;;;;;;;;;;;22.34;57.51;99928.44;451721;116;922651;-73
2021/08/19 02:22:33;;;;;;;;;;;;;;;22.36;57.43;99928.14;460983;113;922769;-73
2021/08/19 02:23:36;;;;;;;;;;;;;;;22.37;57.37;99929.79;461239;111;924888;-73
2021/08/19 02:24:40;;;;;;;;;;;;;;;22.38;57.30;99931.44;460505;113;923079;-71
2021/08/19 02:25:43;;;;;;;;;;;;;;;22.38;57.30;99935.02;460730;114;922708;-73
2021/08/19 02:26:46;;;;;;;;;;;;;;;22.39;57.23;99939.44;459787;116;922689;-73
2021/08/19 02:27:49;;;;;;;;;;;;;;;22.40;57.13;99940.27;460683;110;923154;-71
2021/08/19 02:28:53;;;;;;;;;;;;;;;22.39;57.23;99936.66;461085;113;922658;-72
2021/08/19 02:29:56;;;;;;;;;;;;;;;22.37;57.19;99940.91;461031;114;922697;-72
2021/08/19 02:30:59;;;;;;;;;;;;;;;22.34;57.19;99936.77;460822;113;923151;-72
2021/08/19 02:32:03;;;;;;;;;;;;;;;22.33;57.17;99945.40;461080;110;922674;-72
2021/08/19 02:33:06;;;;;;;;;;;;;;;22.32;57.18;99938.23;460971;113;922713;-71
2021/08/19 02:34:10;;;;;;;;;;;;;;;22.31;57.26;99934.63;461142;113;922772;-71
2021/08/19 02:35:13;;;;;;;;;;;;;;;22.32;57.23;99936.27;460753;113;922689;-72
2021/08/19 02:36:16;;;;;;;;;;;;;;;22.33;57.20;99945.40;460898;113;921761;-72
2021/08/19 02:37:20;;;;;;;;;;;;;;;22.34;57.13;99933.16;461582;113;923135;-72
2021/08/19 02:38:23;;;;;;;;;;;;;;;22.33;57.13;99943.45;460876;113;923548;-73
2021/08/19 02:39:26;;;;;;;;;;;;;;;22.32;57.04;99943.78;460652;111;922963;-72
2021/08/19 02:40:29;;;;;;;;;;;;;;;22.29;57.08;99944.38;460604;113;922631;-72
2021/08/19 02:41:32;;;;;;;;;;;;;;;22.27;57.05;99936.38;460302;113;921528;-72
2021/08/19 02:42:36;;;;;;;;;;;;;;;22.24;57.06;99945.31;460762;114;923119;-72
2021/08/19 02:43:44;;;;;;;;;;;;;;;22.22;57.10;99941.20;460982;113;922647;-72
2021/08/19 02:44:44;;;;;;;;;;;;;;;22.21;57.17;99936.78;463609;111;922448;-71
2021/08/19 02:45:47;;;;;;;;;;;;;;;22.21;57.28;99945.11;466415;112;923134;-71
2021/08/19 02:46:50;;;;;;;;;;;;;;;22.22;57.34;99941.20;465772;112;922722;-71
2021/08/19 02:47:53;;;;;;;;;;;;;;;22.24;57.33;99944.48;467439;112;921522;-71
2021/08/19 02:48:57;;;;;;;;;;;;;;;22.25;57.30;99944.19;467235;111;923124;-71
2021/08/19 02:50:00;;;;;;;;;;;;;;;22.27;57.27;99939.16;461172;111;922670;-71
2021/08/19 02:51:03;;;;;;;;;;;;;;;22.27;57.25;99939.16;461869;114;922683;-70
2021/08/19 02:52:06;;;;;;;;;;;;;;;22.28;57.30;99940.78;460775;114;922699;-72
2021/08/19 02:53:09;;;;;;;;;;;;;;;22.30;57.28;99946.03;461002;111;922669;-71
2021/08/19 02:54:12;;;;;;;;;;;;;;;22.30;57.22;99946.86;460551;111;922615;-71
2021/08/19 02:55:16;;;;;;;;;;;;;;;22.32;57.13;99943.78;461834;114;923663;-71
2021/08/19 02:56:19;;;;;;;;;;;;;;;22.34;56.98;99947.87;460733;114;922750;-71
2021/08/19 02:57:22;;;;;;;;;;;;;;;22.35;56.96;99951.48;461656;111;922633;-71
2021/08/19 02:58:26;;;;;;;;;;;;;;;22.34;57.02;99947.05;461846;111;922784;-71
2021/08/19 02:59:29;;;;;;;;;;;;;;;22.33;57.00;99940.67;463561;114;922765;-73
2021/08/19 03:00:32;;;;;;;;;;;;;;;22.32;56.92;99950.16;462030;111;922316;-72
2021/08/19 03:01:36;;;;;;;;;;;;;;;22.31;56.68;99940.18;461667;113;924104;-72
2021/08/19 03:02:39;;;;;;;;;;;;;;;22.29;56.54;99941.60;461598;111;923108;-71
2021/08/19 03:03:43;;;;;;;;;;;;;;;22.30;56.57;99951.59;458630;112;922686;-72
2021/08/19 03:04:46;;;;;;;;;;;;;;;22.30;56.55;99948.81;451266;114;922699;-70
2021/08/19 03:05:49;;;;;;;;;;;;;;;22.29;56.25;99949.94;456986;112;922662;-69
2021/08/19 03:06:52;;;;;;;;;;;;;;;22.27;56.04;99947.48;457946;113;922706;-71
2021/08/19 03:07:56;;;;;;;;;;;;;;;22.26;55.90;99953.34;459050;112;922681;-71
2021/08/19 03:08:59;;;;;;;;;;;;;;;22.24;55.87;99948.09;457287;112;922694;-71
2021/08/19 03:10:03;;;;;;;;;;;;;;;22.24;55.77;99952.81;458468;114;923115;-72
2021/08/19 03:11:06;;;;;;;;;;;;;;;22.24;55.86;99953.64;457959;114;923876;-73
2021/08/19 03:12:09;;;;;;;;;;;;;;;22.27;55.93;99947.48;459499;112;921531;-71
2021/08/19 03:13:13;;;;;;;;;;;;;;;22.29;55.85;99963.82;459140;115;922697;-72
2021/08/19 03:14:16;;;;;;;;;;;;;;;22.29;55.91;99952.71;458579;113;923635;-72
2021/08/19 03:15:19;;;;;;;;;;;;;;;22.30;55.82;99954.36;459760;112;922601;-72
2021/08/19 03:16:22;;;;;;;;;;;;;;;22.30;55.94;99952.41;459383;112;922670;-71
2021/08/19 03:17:27;;;;;;;;;;;;;;;22.32;55.97;99957.67;460415;115;922698;-73
2021/08/19 03:18:30;;;;;;;;;;;;;;;22.33;55.87;99949.00;460494;112;922678;-73
2021/08/19 03:19:34;;;;;;;;;;;;;;;22.34;55.78;99955.39;461880;109;923216;-72
2021/08/19 03:20:38;;;;;;;;;;;;;;;22.34;55.68;99950.66;462393;113;922699;-73
2021/08/19 03:21:41;;;;;;;;;;;;;;;22.35;55.61;99962.59;462505;114;922690;-72
2021/08/19 03:22:46;;;;;;;;;;;;;;;22.34;55.47;99960.94;459835;112;922666;-73
2021/08/19 03:23:52;;;;;;;;;;;;;;;22.33;55.38;99959.29;459404;111;923814;-72
2021/08/19 03:24:56;;;;;;;;;;;;;;;22.32;55.40;99958.50;459302;111;923649;-72
2021/08/19 03:25:59;;;;;;;;;;;;;;;22.31;55.29;99959.62;458581;113;922730;-72
2021/08/19 03:27:03;;;;;;;;;;;;;;;22.30;55.29;99963.52;457516;112;922662;-72
2021/08/19 03:28:08;;;;;;;;;;;;;;;22.30;55.31;99971.03;457789;115;923163;-73
2021/08/19 03:29:11;;;;;;;;;;;;;;;22.28;55.18;99967.72;458805;112;922625;-71
2021/08/19 03:30:14;;;;;;;;;;;;;;;22.27;55.13;99960.55;459991;115;923628;-73
2021/08/19 03:31:18;;;;;;;;;;;;;;;22.25;55.14;99969.18;459566;112;922541;-73
2021/08/19 03:32:21;;;;;;;;;;;;;;;22.24;55.21;99970.30;461257;111;923086;-71
2021/08/19 03:33:25;;;;;;;;;;;;;;;22.24;55.19;99964.75;461075;114;921585;-73
2021/08/19 03:34:28;;;;;;;;;;;;;;;22.26;55.22;99965.27;461162;113;921427;-72
2021/08/19 03:35:31;;;;;;;;;;;;;;;22.27;55.29;99966.10;461311;112;922762;-71
2021/08/19 03:36:35;;;;;;;;;;;;;;;22.28;55.28;99962.99;460894;113;922677;-72
2021/08/19 03:37:40;;;;;;;;;;;;;;;22.29;55.38;99961.87;461828;111;922692;-71
2021/08/19 03:38:43;;;;;;;;;;;;;;;22.32;55.39;99966.83;462218;113;922538;-69
2021/08/19 03:39:47;;;;;;;;;;;;;;;22.35;55.53;99965.38;461957;113;924117;-71
2021/08/19 03:40:50;;;;;;;;;;;;;;;22.37;55.47;99960.34;460997;111;922709;-71
2021/08/19 03:41:53;;;;;;;;;;;;;;;22.39;55.24;99958.89;463775;113;922475;-71
2021/08/19 03:42:57;;;;;;;;;;;;;;;22.40;55.14;99957.77;459955;113;922695;-72
2021/08/19 03:44:00;;;;;;;;;;;;;;;22.42;55.07;99963.02;460971;111;923109;-71
2021/08/19 03:45:05;;;;;;;;;;;;;;;22.44;55.04;99963.52;459528;111;922678;-71
2021/08/19 03:46:08;;;;;;;;;;;;;;;22.45;54.93;99968.77;459272;113;922673;-71
2021/08/19 03:47:12;;;;;;;;;;;;;;;22.46;54.94;99972.38;461367;113;922658;-72
2021/08/19 03:48:17;;;;;;;;;;;;;;;22.46;54.97;99962.09;460925;111;924213;-70
2021/08/19 03:49:20;;;;;;;;;;;;;;;22.48;55.04;99967.34;460773;111;922687;-72
2021/08/19 03:50:23;;;;;;;;;;;;;;;22.48;55.09;99970.13;462411;114;922694;-70
2021/08/19 03:51:29;;;;;;;;;;;;;;;22.47;55.14;99962.91;462132;114;923178;-72
2021/08/19 03:52:32;;;;;;;;;;;;;;;22.50;55.23;99972.57;461389;111;922967;-71
2021/08/19 03:53:39;;;;;;;;;;;;;;;22.49;55.29;99966.22;461490;111;923136;-71
2021/08/19 03:54:43;;;;;;;;;;;;;;;22.50;55.31;99967.02;461116;113;922206;-72
2021/08/19 03:55:46;;;;;;;;;;;;;;;22.51;55.42;99977.00;461135;113;922731;-72
2021/08/19 03:56:50;;;;;;;;;;;;;;;22.48;55.48;99972.91;461903;113;922719;-72
2021/08/19 03:57:54;;;;;;;;;;;;;;;22.48;55.56;99969.30;462441;111;921487;-72
2021/08/19 03:58:57;;;;;;;;;;;;;;;22.47;55.63;99974.03;464798;114;921483;-71
2021/08/19 04:00:00;;;;;;;;;;;;;;;22.47;55.67;99979.58;463727;113;921371;-71
2021/08/19 04:01:06;;;;;;;;;;;;;;;22.46;55.66;99984.31;460996;111;921536;-71
2021/08/19 04:02:09;;;;;;;;;;;;;;;22.47;55.68;99976.80;460590;111;921501;-71
2021/08/19 04:03:13;;;;;;;;;;;;;;;22.49;55.68;99987.62;458816;114;922671;-71
2021/08/19 04:04:17;;;;;;;;;;;;;;;22.49;55.63;99973.73;459072;112;922650;-70
2021/08/19 04:05:20;;;;;;;;;;;;;;;22.49;55.56;99977.33;459604;111;921535;-71
2021/08/19 04:06:23;;;;;;;;;;;;;;;22.49;55.58;99974.55;460026;111;922673;-72
2021/08/19 04:07:26;;;;;;;;;;;;;;;22.50;55.62;99973.39;460834;111;922567;-70
2021/08/19 04:08:30;;;;;;;;;;;;;;;22.50;55.64;99970.62;460770;111;922705;-72
2021/08/19 04:09:33;;;;;;;;;;;;;;;22.50;55.70;99978.13;459652;111;921774;-70
2021/08/19 04:10:37;;;;;;;;;;;;;;;22.46;55.79;99973.20;459895;111;921573;-72
2021/08/19 04:11:40;;;;;;;;;;;;;;;22.44;55.90;99974.62;460905;114;923115;-71
2021/08/19 04:12:43;;;;;;;;;;;;;;;22.43;55.95;99979.39;460858;114;922710;-70
2021/08/19 04:13:46;;;;;;;;;;;;;;;22.43;55.96;99968.27;460487;111;922672;-71
2021/08/19 04:14:49;;;;;;;;;;;;;;;22.44;56.02;99969.89;460988;111;922614;-71
2021/08/19 04:15:53;;;;;;;;;;;;;;;22.46;56.06;99977.93;461845;114;922676;-72
2021/08/19 04:16:56;;;;;;;;;;;;;;;22.49;56.16;99976.51;461125;113;922713;-69
2021/08/19 04:17:59;;;;;;;;;;;;;;;22.49;56.23;99973.73;461117;111;922664;-70
2021/08/19 04:19:02;;;;;;;;;;;;;;;22.48;56.29;99970.13;461361;111;922975;-70
2021/08/19 04:20:06;;;;;;;;;;;;;;;22.48;56.38;99975.68;462259;114;923171;-70
2021/08/19 04:21:10;;;;;;;;;;;;;;;22.49;56.44;99982.06;462311;111;922632;-71
2021/08/19 04:22:13;;;;;;;;;;;;;;;22.47;56.53;99974.03;460462;111;922708;-72
2021/08/19 04:23:16;;;;;;;;;;;;;;;22.47;56.55;99979.58;460867;111;922739;-72
2021/08/19 04:24:20;;;;;;;;;;;;;;;22.46;56.53;99981.53;458206;113;922746;-70
2021/08/19 04:25:23;;;;;;;;;;;;;;;22.46;56.54;99983.48;458816;111;922610;-71
2021/08/19 04:26:27;;;;;;;;;;;;;;;22.43;56.31;99986.90;459533;111;922779;-70
2021/08/19 04:27:30;;;;;;;;;;;;;;;22.41;56.23;99980.81;460156;113;922637;-72
2021/08/19 04:28:33;;;;;;;;;;;;;;;22.39;56.10;99983.89;461844;114;922640;-71
2021/08/19 04:29:36;;;;;;;;;;;;;;;22.38;56.01;99987.00;460928;111;922653;-73
2021/08/19 04:30:40;;;;;;;;;;;;;;;22.37;56.02;99990.90;460520;111;921503;-71
2021/08/19 04:31:43;;;;;;;;;;;;;;;22.35;56.05;99987.59;459978;111;922709;-70
2021/08/19 04:32:47;;;;;;;;;;;;;;;22.33;56.14;99990.67;460870;114;923159;-71
2021/08/19 04:33:50;;;;;;;;;;;;;;;22.32;56.05;99988.22;460214;111;922660;-71
2021/08/19 04:34:55;;;;;;;;;;;;;;;22.31;55.87;99983.80;460275;113;922551;-70
2021/08/19 04:35:59;;;;;;;;;;;;;;;22.30;55.83;99982.14;461334;113;922405;-72
2021/08/19 04:37:03;;;;;;;;;;;;;;;22.29;55.83;99989.64;461611;113;921637;-72
2021/08/19 04:38:06;;;;;;;;;;;;;;;22.29;55.85;99977.70;462100;111;921439;-72
2021/08/19 04:39:09;;;;;;;;;;;;;;;22.27;55.92;99978.04;461425;111;921609;-71
2021/08/19 04:40:13;;;;;;;;;;;;;;;22.27;55.97;99972.48;462210;113;921506;-71
2021/08/19 04:41:16;;;;;;;;;;;;;;;22.28;56.10;99976.05;463169;114;921397;-73
2021/08/19 04:42:20;;;;;;;;;;;;;;;22.29;56.25;99977.70;462548;111;921509;-71
2021/08/19 04:43:23;;;;;;;;;;;;;;;22.29;56.21;99980.48;462892;111;921647;-73
2021/08/19 04:44:27;;;;;;;;;;;;;;;22.29;56.18;99972.98;463677;111;921478;-72
2021/08/19 04:45:30;;;;;;;;;;;;;;;22.29;56.03;99988.81;457972;114;921448;-73
2021/08/19 04:46:34;;;;;;;;;;;;;;;22.29;56.01;99980.48;459289;112;921564;-73
2021/08/19 04:47:37;;;;;;;;;;;;;;;22.28;56.01;99976.05;458790;112;921594;-72
2021/08/19 04:48:40;;;;;;;;;;;;;;;22.28;56.15;99974.11;456772;115;921428;-71
2021/08/19 04:49:43;;;;;;;;;;;;;;;22.28;56.22;99968.55;457854;115;921334;-72
2021/08/19 04:50:46;;;;;;;;;;;;;;;22.29;56.31;99967.42;458661;112;922042;-73
2021/08/19 04:51:50;;;;;;;;;;;;;;;22.29;56.37;99967.42;459013;112;921372;-71
2021/08/19 04:52:53;;;;;;;;;;;;;;;22.32;56.35;99972.38;458622;112;921451;-72
2021/08/19 04:53:57;;;;;;;;;;;;;;;22.35;56.31;99970.92;458545;115;921555;-71
2021/08/19 04:55:02;;;;;;;;;;;;;;;22.36;56.15;99967.85;455591;113;921458;-72
2021/08/19 04:56:05;;;;;;;;;;;;;;;22.37;56.01;99969.50;455181;114;921624;-71
2021/08/19 04:57:08;;;;;;;;;;;;;;;22.39;56.04;99960.84;460466;115;921588;-72
2021/08/19 04:58:11;;;;;;;;;;;;;;;22.39;56.11;99960.84;460183;115;922650;-73
2021/08/19 04:59:15;;;;;;;;;;;;;;;22.40;56.03;99965.27;459341;112;922737;-73
2021/08/19 05:00:18;;;;;;;;;;;;;;;22.41;55.97;99967.75;459837;112;922714;-72
2021/08/19 05:01:21;;;;;;;;;;;;;;;22.43;55.88;99970.23;460996;115;922750;-70
2021/08/19 05:02:25;;;;;;;;;;;;;;;22.44;55.96;99969.89;460581;115;922676;-74
2021/08/19 05:03:28;;;;;;;;;;;;;;;22.46;55.97;99972.38;460383;112;921473;-71
2021/08/19 05:04:32;;;;;;;;;;;;;;;22.48;56.01;99975.68;461602;112;921804;-73
2021/08/19 05:05:35;;;;;;;;;;;;;;;22.51;56.13;99969.49;463445;112;922116;-71
2021/08/19 05:06:39;;;;;;;;;;;;;;;22.54;56.11;99968.89;461529;115;922269;-72
2021/08/19 05:07:42;;;;;;;;;;;;;;;22.58;56.11;99969.09;458045;112;922621;-70
2021/08/19 05:08:45;;;;;;;;;;;;;;;22.60;56.14;99967.66;458342;112;922676;-71
2021/08/19 05:09:49;;;;;;;;;;;;;;;22.63;55.99;99967.03;458234;114;921533;-72
2021/08/19 05:10:52;;;;;;;;;;;;;;;22.67;55.97;99972.78;457649;115;922641;-71
2021/08/19 05:11:55;;;;;;;;;;;;;;;22.70;55.94;99972.17;458377;112;922688;-72
2021/08/19 05:12:58;;;;;;;;;;;;;;;22.72;55.93;99970.75;458472;112;922560;-72
2021/08/19 05:14:03;;;;;;;;;;;;;;;22.75;56.00;99969.32;459406;115;922741;-72
2021/08/19 05:15:07;;;;;;;;;;;;;;;22.77;55.83;99972.63;459547;112;921530;-72
2021/08/19 05:16:10;;;;;;;;;;;;;;;22.79;55.84;99971.16;460015;112;922674;-73
2021/08/19 05:17:13;;;;;;;;;;;;;;;22.81;55.70;99963.34;456199;113;923159;-72
2021/08/19 05:18:16;;;;;;;;;;;;;;;22.82;55.30;99959.41;455031;115;922730;-70
2021/08/19 05:19:21;;;;;;;;;;;;;;;22.84;54.98;99964.67;460177;115;922664;-72
2021/08/19 05:20:27;;;;;;;;;;;;;;;22.85;54.78;99969.09;459211;112;922669;-72
2021/08/19 05:21:30;;;;;;;;;;;;;;;22.87;54.71;99966.84;460711;112;921590;-72
2021/08/19 05:22:33;;;;;;;;;;;;;;;22.88;54.74;99958.17;461635;115;921432;-72
2021/08/19 05:23:36;;;;;;;;;;;;;;;22.93;54.71;99959.21;459487;115;923053;-73
2021/08/19 05:24:40;;;;;;;;;;;;;;;22.96;54.63;99962.18;461433;114;921570;-71
2021/08/19 05:25:43;;;;;;;;;;;;;;;22.99;54.55;99949.63;460887;112;922623;-72